コルドバ空港の過去48時間の天気

コルドバ空港 (Cordoba Aerodrome)

現在時刻: 8/25 12:21 -03 (8/25 15:21 UTC) 以下の時間は現地時間です。

過去48時間のMETAR気象情報
時間 風向 風速(m/s) 視程 気温(℃) 湿度(%) 気圧(hPa) 天気現象
25 12:00 東北東 5 8000m 20 49 1016
25 11:00 東北東 3 8000m 18 52 1017
25 10:00 北東 3 8000m 17 59 1017
25 09:00 不定 1 7000m 12 88 1016
25 08:00 北東 2 7000m 10 82 1017
25 07:00 東北東 1 10km以上 10 76 1016
25 06:00 西 2 10km以上 10 76 1016
25 05:00 3 10km以上 11 71 1015
25 04:00 3 10km以上 13 67 1016
25 03:00 3 10km以上 12 71 1016
25 02:00 2 10km以上 11 76 1017
25 01:00 北北東 3 10km以上 10 76 1018
25 00:00 東北東 1 10km以上 11 71 1019
24 23:00 北北東 3 10km以上 12 71 1019
24 22:00 北北東 3 10km以上 12 71 1018
24 21:00 北北東 3 10km以上 13 72 1018
24 20:00 北東 5 10km以上 15 59 1017
24 19:00 北東 5 10km以上 17 52 1017
24 18:00 北東 7 10km以上 20 40 1016
24 17:00 北東 8 10km以上 21 38 1016
24 16:00 北東 7 10km以上 22 38 1016
24 15:00 北東 8 10km以上 22 38 1016
24 14:00 北東 8 10km以上 21 38 1018
24 13:00 北東 8 10km以上 21 38 1019
24 12:00 北北東 8 10km以上 19 40 1020
24 11:00 北北東 9 10km以上 18 45 1020
24 10:00 北北東 5 10km以上 16 51 1020
24 09:00 北東 5 8000m 13 67 1019
24 08:00 北北東 1 8000m 7 87 1019
24 07:00 南南東 1 10km以上 7 87 1019
24 06:00 静穏 0 10km以上 8 76 1018
24 05:00 北西 2 10km以上 8 76 1018
24 04:00 静穏 0 10km以上 7 81 1019
24 03:00 北北東 2 10km以上 7 81 1019
24 02:00 北北西 3 10km以上 8 81 1020
24 01:00 北北西 2 10km以上 7 87 1020
24 00:00 北北東 4 10km以上 10 82 1020
23 23:00 北北東 5 10km以上 11 76 1020
23 22:00 4 10km以上 10 76 1020
23 21:00 北北東 5 10km以上 11 71 1020
23 20:00 北東 7 10km以上 14 63 1019
23 19:00 北東 6 10km以上 16 51 1018
23 18:00 北東 10 10km以上 19 40 1018
23 17:00 北東 11 10km以上 20 35 1018
23 16:00 北東 11 10km以上 20 35 1019
23 15:00 北東 12 10km以上 20 35 1019
23 14:00 北東 11 10km以上 20 35 1021
23 13:41 北東 11 10km以上 21 33 1021
23 13:00 北東 10 10km以上 20 35 1022
SACO 251500Z 06010KT 8000 NSC 20/09 Q1016 NOSIG
SACO 251400Z 06006KT 8000 NSC 18/08 Q1017 NOSIG
SACO 251300Z 04006KT 8000 NSC 17/09 Q1017 NOSIG
SACO 251200Z VRB02KT 7000 NSC 12/10 Q1016 NOSIG
SACO 251100Z 05004KT 7000 FEW030 SCT100 BKN200 10/07 Q1017 NOSIG
SACO 251000Z 07002KT 9999 FEW030 BKN200 10/06 Q1016 NOSIG
SACO 250900Z 28004KT CAVOK 10/06 Q1016 NOSIG
SACO 250800Z 35005KT CAVOK 11/06 Q1015 NOSIG
SACO 250700Z 01006KT CAVOK 13/07 Q1016 NOSIG
SACO 250600Z 01005KT CAVOK 12/07 Q1016 NOSIG
SACO 250500Z 01004KT CAVOK 11/07 Q1017 NOSIG
SACO 250400Z 03005KT CAVOK 10/06 Q1018 NOSIG
SACO 250300Z 07002KT 350V050 CAVOK 11/06 Q1019
SACO 250200Z 02005KT CAVOK 12/07 Q1019 NOSIG
SACO 250100Z 02006KT CAVOK 12/07 Q1018 NOSIG
SACO 250000Z 03006KT CAVOK 13/08 Q1018 NOSIG
SACO 242300Z 04009KT CAVOK 15/07 Q1017 NOSIG
SACO 242200Z 05009KT CAVOK 17/07 Q1017 NOSIG
SACO 242100Z 04013KT CAVOK 20/06 Q1016 NOSIG
SACO 242000Z 05015KT CAVOK 21/06 Q1016 NOSIG
SACO 241900Z 05014KT CAVOK 22/07 Q1016 NOSIG
SACO 241800Z 05015KT CAVOK 22/07 Q1016 NOSIG
SACO 241700Z 05016KT CAVOK 21/06 Q1018 NOSIG
SACO 241600Z 05015KT CAVOK 21/06 Q1019 NOSIG
SACO 241500Z 03015KT CAVOK 19/05 Q1020 NOSIG
SACO 241400Z 03017KT CAVOK 18/06 Q1020 NOSIG
SACO 241300Z 02010KT CAVOK 16/06 Q1020 NOSIG
SACO 241200Z 05009KT 8000 NSC 13/07 Q1019 NOSIG
SACO 241100Z 02002KT 8000 NSC 07/05 Q1019 NOSIG
SACO 241000Z 15002KT CAVOK 07/05 Q1019 NOSIG
SACO 240900Z 00000KT CAVOK 08/04 Q1018 NOSIG
SACO 240800Z 32004KT CAVOK 08/04 Q1018 NOSIG
SACO 240700Z 00000KT CAVOK 07/04 Q1019 NOSIG
SACO 240600Z 03003KT CAVOK 07/04 Q1019 NOSIG
SACO 240500Z 33005KT CAVOK 08/05 Q1020 NOSIG
SACO 240400Z 33003KT CAVOK 07/05 Q1020 NOSIG
SACO 240300Z 02008KT CAVOK 10/07 Q1020 NOSIG
SACO 240200Z 02009KT CAVOK 11/07 Q1020 NOSIG
SACO 240100Z 35007KT CAVOK 10/06 Q1020 NOSIG
SACO 240000Z 03010KT CAVOK 11/06 Q1020 NOSIG
SACO 232300Z 04013KT CAVOK 14/07 Q1019 NOSIG
SACO 232200Z 05012KT CAVOK 16/06 Q1018 NOSIG
SACO 232100Z 04020KT CAVOK 19/05 Q1018 NOSIG
SACO 232000Z 04022KT CAVOK 20/04 Q1018 NOSIG
SACO 231900Z 04021KT CAVOK 20/04 Q1019 NOSIG
SACO 231800Z 04024KT CAVOK 20/04 Q1019 NOSIG
SACO 231700Z 05021KT CAVOK 20/04 Q1021 NOSIG
SACO 231641Z 04021G31KT CAVOK 21/04 Q1021 NOSIG
SACO 231600Z 04020KT CAVOK 20/04 Q1022 NOSIG